createdAt,value
2019-05-28T00:00:19.964Z,13.10
2019-05-28T00:02:48.059Z,13.00
2019-05-28T00:05:16.408Z,13.00
2019-05-28T00:07:43.787Z,13.00
2019-05-28T00:10:11.264Z,13.10
2019-05-28T00:12:41.750Z,13.00
2019-05-28T00:15:09.274Z,13.00
2019-05-28T00:17:36.584Z,13.00
2019-05-28T00:20:04.156Z,13.00
2019-05-28T00:22:34.765Z,13.20
2019-05-28T00:25:02.082Z,13.10
2019-05-28T00:27:29.665Z,13.00
2019-05-28T00:29:57.228Z,12.80
2019-05-28T00:32:24.546Z,12.90
2019-05-28T00:34:51.922Z,13.00
2019-05-28T00:37:19.256Z,13.00
2019-05-28T00:39:46.840Z,13.00
2019-05-28T00:42:14.103Z,13.00
2019-05-28T00:44:41.462Z,13.10
2019-05-28T00:47:08.788Z,13.10
2019-05-28T00:49:36.524Z,13.00
2019-05-28T00:52:06.316Z,13.00
2019-05-28T00:54:34.159Z,13.00
2019-05-28T00:57:01.955Z,12.90
2019-05-28T00:59:30.184Z,12.80
2019-05-28T01:02:00.543Z,12.70
2019-05-28T01:04:28.053Z,12.70
2019-05-28T01:06:59.677Z,12.60
2019-05-28T01:09:27.385Z,12.60
2019-05-28T01:11:54.952Z,12.60
2019-05-28T01:14:22.320Z,12.50
2019-05-28T01:16:49.591Z,12.60
2019-05-28T01:19:16.820Z,12.60
2019-05-28T01:21:44.033Z,12.60
2019-05-28T01:24:11.455Z,12.60
2019-05-28T01:26:38.767Z,12.50
2019-05-28T01:29:06.374Z,12.50
2019-05-28T01:31:33.785Z,12.50
2019-05-28T01:34:01.257Z,12.50
2019-05-28T01:36:28.477Z,12.40
2019-05-28T01:38:55.758Z,12.30
2019-05-28T01:41:23.196Z,12.30
2019-05-28T01:43:50.805Z,12.30
2019-05-28T01:46:18.644Z,12.30
2019-05-28T01:48:47.765Z,12.30
2019-05-28T01:51:15.092Z,12.30
2019-05-28T01:53:42.365Z,12.30
2019-05-28T01:56:09.716Z,12.30
2019-05-28T01:58:36.947Z,12.30
2019-05-28T02:01:12.842Z,12.20
2019-05-28T02:03:33.665Z,12.30
2019-05-28T02:06:04.229Z,12.20
2019-05-28T02:08:31.884Z,12.10
2019-05-28T02:10:59.310Z,12.10
2019-05-28T02:13:26.670Z,12.20
2019-05-28T02:15:53.908Z,12.20
2019-05-28T02:18:21.524Z,12.20
2019-05-28T02:20:49.155Z,12.20
2019-05-28T02:23:16.452Z,12.10
2019-05-28T02:25:43.707Z,12.10
2019-05-28T02:28:11.041Z,12.10
2019-05-28T02:30:38.311Z,12.00
2019-05-28T02:33:05.627Z,12.00
2019-05-28T02:35:33.292Z,12.00
2019-05-28T02:38:00.603Z,12.10
2019-05-28T02:40:28.198Z,12.10
2019-05-28T02:42:55.685Z,12.10
2019-05-28T02:45:23.058Z,12.20
2019-05-28T02:47:50.316Z,12.20
2019-05-28T02:50:23.728Z,12.10
2019-05-28T02:52:51.253Z,12.10
2019-05-28T02:55:18.804Z,12.10
2019-05-28T02:57:48.595Z,12.10
2019-05-28T03:00:17.858Z,12.10
2019-05-28T03:02:47.253Z,12.20
2019-05-28T03:05:16.236Z,12.30
2019-05-28T03:07:45.956Z,12.30
2019-05-28T03:10:13.989Z,12.30
2019-05-28T03:12:41.166Z,12.30
2019-05-28T03:15:09.588Z,12.30
2019-05-28T03:17:39.333Z,12.20
2019-05-28T03:20:08.804Z,12.10
2019-05-28T03:22:37.584Z,12.00
2019-05-28T03:25:05.723Z,12.10
2019-05-28T03:27:33.066Z,12.10
2019-05-28T03:30:00.429Z,12.20
2019-05-28T03:32:27.655Z,12.10
2019-05-28T03:34:54.896Z,12.10
2019-05-28T03:37:22.781Z,12.20
2019-05-28T03:39:51.240Z,12.20
2019-05-28T03:42:18.849Z,12.20
2019-05-28T03:44:46.109Z,12.20
2019-05-28T03:47:13.368Z,12.10
2019-05-28T03:49:40.631Z,12.20
2019-05-28T03:52:07.869Z,12.20
2019-05-28T03:54:35.099Z,12.20
2019-05-28T03:57:02.336Z,12.10
2019-05-28T03:59:29.667Z,12.10
2019-05-28T04:01:57.301Z,12.10
2019-05-28T04:04:24.520Z,12.10
2019-05-28T04:06:52.112Z,12.20
2019-05-28T04:09:19.685Z,12.20
2019-05-28T04:11:47.221Z,12.20
2019-05-28T04:14:14.564Z,12.30
2019-05-28T04:16:41.924Z,12.30
2019-05-28T04:19:09.152Z,12.40
2019-05-28T04:21:36.370Z,12.40
2019-05-28T04:24:03.905Z,12.40
2019-05-28T04:26:31.162Z,12.40
2019-05-28T04:28:58.392Z,12.40
2019-05-28T04:31:25.973Z,12.40
2019-05-28T04:33:53.790Z,12.40
2019-05-28T04:36:21.529Z,12.40
2019-05-28T04:38:51.852Z,12.50
2019-05-28T04:41:19.015Z,12.50
2019-05-28T04:43:46.525Z,12.50
2019-05-28T04:46:13.868Z,12.60
2019-05-28T04:48:41.848Z,12.50
2019-05-28T04:51:09.116Z,12.70
2019-05-28T04:53:36.345Z,12.80
2019-05-28T04:56:03.627Z,12.90
2019-05-28T04:58:31.224Z,12.80
2019-05-28T05:00:59.441Z,12.70
2019-05-28T05:03:26.950Z,12.70
2019-05-28T05:05:54.692Z,12.70
2019-05-28T05:08:23.204Z,12.90
2019-05-28T05:10:52.169Z,12.80
2019-05-28T05:13:20.338Z,12.70
2019-05-28T05:15:49.557Z,12.90
2019-05-28T05:18:17.572Z,12.90
2019-05-28T05:20:46.109Z,12.90
2019-05-28T05:23:14.035Z,12.80
2019-05-28T05:25:42.135Z,12.80
2019-05-28T05:28:09.443Z,12.80
2019-05-28T05:30:36.731Z,12.80
2019-05-28T05:33:19.147Z,12.80
2019-05-28T05:35:37.080Z,12.70
2019-05-28T05:38:05.262Z,12.70
2019-05-28T05:40:33.158Z,12.80
2019-05-28T05:43:01.265Z,12.80
2019-05-28T05:45:29.974Z,12.80
2019-05-28T05:47:58.516Z,12.80
2019-05-28T05:50:28.565Z,12.80
2019-05-28T05:52:55.908Z,12.80
2019-05-28T05:55:23.495Z,13.00
2019-05-28T05:57:52.946Z,13.00
2019-05-28T06:00:20.800Z,13.00
2019-05-28T06:02:48.157Z,13.10
2019-05-28T06:05:15.712Z,13.10
2019-05-28T06:07:43.000Z,13.10
2019-05-28T06:10:11.922Z,13.10
2019-05-28T06:12:39.151Z,13.10
2019-05-28T06:15:06.545Z,13.20
2019-05-28T06:17:33.875Z,13.20
2019-05-28T06:20:01.715Z,13.30
2019-05-28T06:22:28.992Z,13.30
2019-05-28T06:24:56.652Z,13.40
2019-05-28T06:27:24.294Z,13.50
2019-05-28T06:29:51.514Z,13.60
2019-05-28T06:32:19.106Z,13.60
2019-05-28T06:34:46.384Z,13.60
2019-05-28T06:37:13.708Z,13.60
2019-05-28T06:39:41.065Z,13.70
2019-05-28T06:42:08.323Z,13.90
2019-05-28T06:44:35.895Z,14.00
2019-05-28T06:47:03.348Z,13.90
2019-05-28T06:49:31.223Z,13.90
2019-05-28T06:51:58.482Z,13.90
2019-05-28T06:54:25.735Z,14.00
2019-05-28T06:56:52.997Z,13.90
2019-05-28T06:59:25.482Z,13.80
2019-05-28T07:01:52.872Z,13.80
2019-05-28T07:04:32.337Z,13.80
2019-05-28T07:06:49.680Z,13.90
2019-05-28T07:09:17.049Z,13.90
2019-05-28T07:11:44.583Z,14.00
2019-05-28T07:14:11.868Z,14.10
2019-05-28T07:16:52.650Z,14.10
2019-05-28T07:19:23.490Z,14.20
2019-05-28T07:21:37.686Z,14.20
2019-05-28T07:24:05.203Z,14.10
2019-05-28T07:26:33.032Z,14.10
2019-05-28T07:29:00.308Z,14.10
2019-05-28T07:31:27.580Z,14.00
2019-05-28T07:33:54.844Z,14.00
2019-05-28T07:36:22.116Z,14.00
2019-05-28T07:38:49.404Z,14.10
2019-05-28T07:41:16.918Z,14.10
2019-05-28T07:43:44.645Z,14.20
2019-05-28T07:46:11.921Z,14.30
2019-05-28T07:48:39.618Z,14.40
2019-05-28T07:51:07.145Z,14.40
2019-05-28T07:53:40.170Z,14.30
2019-05-28T07:56:03.590Z,14.30
2019-05-28T07:58:31.155Z,14.40
2019-05-28T08:00:58.730Z,14.50
2019-05-28T08:03:25.997Z,14.50
2019-05-28T08:05:53.375Z,14.70
2019-05-28T08:08:20.596Z,14.80
2019-05-28T08:10:48.259Z,14.70
2019-05-28T08:13:15.398Z,14.70
2019-05-28T08:15:42.621Z,14.70
2019-05-28T08:18:09.893Z,14.60
2019-05-28T08:20:37.466Z,14.70
2019-05-28T08:23:05.099Z,14.80
2019-05-28T08:25:46.072Z,14.90
2019-05-28T08:28:18.675Z,15.10
2019-05-28T08:30:31.169Z,15.10
2019-05-28T08:32:58.884Z,15.40
2019-05-28T08:35:26.074Z,15.60
2019-05-28T08:37:53.479Z,15.80
2019-05-28T08:40:20.841Z,16.30
2019-05-28T08:42:48.120Z,16.80
2019-05-28T08:45:15.562Z,17.00
2019-05-28T08:47:43.373Z,17.40
2019-05-28T08:50:10.801Z,17.70
2019-05-28T08:52:38.054Z,18.00
2019-05-28T08:55:06.239Z,17.90
2019-05-28T08:57:33.727Z,17.80
2019-05-28T09:00:01.350Z,17.60
2019-05-28T09:02:29.075Z,17.60
2019-05-28T09:04:56.475Z,17.40
2019-05-28T09:07:24.257Z,17.60
2019-05-28T09:09:52.213Z,17.80
2019-05-28T09:12:19.489Z,17.60
2019-05-28T09:14:55.812Z,17.60
2019-05-28T09:17:16.315Z,17.70
2019-05-28T09:19:43.597Z,18.00
2019-05-28T09:22:24.705Z,18.10
2019-05-28T09:24:40.540Z,18.00
2019-05-28T09:27:07.828Z,18.00
2019-05-28T09:29:35.179Z,17.40
2019-05-28T09:32:02.606Z,16.80
2019-05-28T09:34:29.974Z,16.90
2019-05-28T09:36:57.209Z,17.30
2019-05-28T09:39:24.350Z,17.60
2019-05-28T09:41:51.613Z,18.00
2019-05-28T09:44:18.848Z,18.40
2019-05-28T09:46:46.497Z,18.90
2019-05-28T09:49:13.751Z,18.80
2019-05-28T09:51:40.996Z,18.70
2019-05-28T09:54:08.576Z,18.60
2019-05-28T09:56:35.855Z,18.50
2019-05-28T09:59:03.273Z,18.30
2019-05-28T10:01:31.066Z,18.10
2019-05-28T10:03:58.336Z,18.10
2019-05-28T10:06:36.849Z,18.00
2019-05-28T10:08:54.763Z,17.90
2019-05-28T10:11:22.415Z,17.60
2019-05-28T10:13:49.812Z,17.80
2019-05-28T10:16:17.090Z,17.90
2019-05-28T10:18:44.397Z,18.10
2019-05-28T10:21:18.570Z,18.60
2019-05-28T10:23:43.092Z,19.00
2019-05-28T10:26:10.757Z,19.10
2019-05-28T10:28:38.024Z,18.70
2019-05-28T10:31:05.376Z,18.40
2019-05-28T10:33:32.539Z,18.50
2019-05-28T10:36:00.188Z,18.60
2019-05-28T10:38:28.223Z,19.10
2019-05-28T10:40:55.472Z,19.50
2019-05-28T10:43:22.732Z,20.20
2019-05-28T10:45:50.047Z,20.60
2019-05-28T10:48:17.341Z,21.20
2019-05-28T10:50:44.644Z,22.00
2019-05-28T10:53:12.025Z,22.80
2019-05-28T10:55:39.277Z,23.50
2019-05-28T10:58:07.154Z,24.10
2019-05-28T11:00:34.424Z,24.30
2019-05-28T11:03:01.659Z,24.10
2019-05-28T11:05:28.996Z,24.20
2019-05-28T11:07:56.677Z,24.70
2019-05-28T11:10:24.913Z,25.20
2019-05-28T11:12:52.556Z,25.00
2019-05-28T11:15:23.620Z,25.00
2019-05-28T11:17:49.732Z,24.50
2019-05-28T11:20:17.975Z,22.80
2019-05-28T11:22:45.648Z,20.80
2019-05-28T11:25:13.924Z,20.20
2019-05-28T11:27:41.181Z,19.70
2019-05-28T11:30:09.024Z,19.80
2019-05-28T11:32:36.260Z,21.40
2019-05-28T11:35:06.174Z,23.00
2019-05-28T11:37:33.512Z,24.60
2019-05-28T11:40:00.795Z,24.50
2019-05-28T11:42:28.141Z,23.60
2019-05-28T11:44:55.373Z,22.60
2019-05-28T11:47:22.718Z,21.30
2019-05-28T11:49:50.062Z,20.50
2019-05-28T11:52:17.629Z,19.90
2019-05-28T11:54:44.953Z,19.60
2019-05-28T11:57:12.560Z,20.00
2019-05-28T11:59:39.821Z,22.10
2019-05-28T12:02:07.386Z,23.60
2019-05-28T12:04:35.076Z,24.40
2019-05-28T12:07:02.592Z,25.20
2019-05-28T12:09:29.859Z,25.50
2019-05-28T12:11:57.118Z,25.50
2019-05-28T12:14:24.374Z,23.20
2019-05-28T12:16:51.702Z,21.50
2019-05-28T12:19:18.976Z,21.30
2019-05-28T12:21:46.297Z,20.70
2019-05-28T12:24:13.522Z,20.30
2019-05-28T12:26:40.963Z,19.70
2019-05-28T12:29:08.466Z,19.40
2019-05-28T12:31:35.720Z,19.40
2019-05-28T12:34:03.006Z,19.30
2019-05-28T12:36:30.306Z,19.10
2019-05-28T12:38:57.582Z,19.00
2019-05-28T12:41:24.853Z,18.60
2019-05-28T12:43:52.399Z,18.50
2019-05-28T12:46:20.161Z,18.60
2019-05-28T12:48:47.441Z,18.80
2019-05-28T12:51:14.696Z,19.00
2019-05-28T12:53:50.499Z,18.80
2019-05-28T12:56:11.158Z,18.60
2019-05-28T12:58:43.133Z,18.40
2019-05-28T13:01:07.646Z,18.20
2019-05-28T13:03:34.930Z,18.20
2019-05-28T13:06:02.282Z,18.40
2019-05-28T13:08:29.817Z,18.50
2019-05-28T13:10:57.101Z,18.90
2019-05-28T13:13:24.744Z,19.00
2019-05-28T13:15:52.478Z,19.30
2019-05-28T13:18:19.791Z,19.30
2019-05-28T13:20:48.274Z,19.70
2019-05-28T13:23:15.893Z,19.70
2019-05-28T13:25:43.228Z,19.70
2019-05-28T13:28:10.978Z,19.60
2019-05-28T13:30:38.544Z,19.40
2019-05-28T13:33:05.899Z,19.60
2019-05-28T13:35:33.252Z,19.60
2019-05-28T13:38:00.788Z,19.60
2019-05-28T13:40:28.024Z,19.70
2019-05-28T13:42:55.225Z,19.70
2019-05-28T13:45:22.904Z,19.70
2019-05-28T13:47:50.568Z,19.50
2019-05-28T13:50:18.402Z,19.40
2019-05-28T13:52:45.997Z,19.20
2019-05-28T13:55:13.735Z,19.10
2019-05-28T13:57:41.242Z,19.00
2019-05-28T14:00:09.770Z,19.40
2019-05-28T14:02:37.290Z,19.50
2019-05-28T14:05:04.913Z,19.40
2019-05-28T14:07:32.149Z,19.30
2019-05-28T14:09:59.734Z,19.00
2019-05-28T14:12:26.967Z,19.20
2019-05-28T14:14:54.223Z,19.10
2019-05-28T14:17:21.840Z,19.10
2019-05-28T14:19:49.459Z,19.40
2019-05-28T14:22:33.108Z,19.60
2019-05-28T14:24:46.273Z,20.00
2019-05-28T14:27:13.593Z,20.10
2019-05-28T14:29:40.862Z,20.00
2019-05-28T14:32:08.408Z,19.90
2019-05-28T14:34:35.659Z,19.90
2019-05-28T14:37:02.930Z,19.60
2019-05-28T14:39:40.645Z,19.40
2019-05-28T14:41:59.320Z,19.20
2019-05-28T14:44:26.552Z,19.00
2019-05-28T14:46:54.162Z,18.80
2019-05-28T14:49:21.820Z,18.70
2019-05-28T14:51:49.146Z,18.40
2019-05-28T14:54:17.136Z,18.40
2019-05-28T14:56:44.289Z,18.60
2019-05-28T14:59:11.440Z,18.50
2019-05-28T15:01:38.897Z,18.60
2019-05-28T15:04:09.149Z,18.70
2019-05-28T15:06:36.476Z,18.70
2019-05-28T15:09:20.956Z,18.80
2019-05-28T15:11:43.092Z,18.70
2019-05-28T15:14:10.377Z,18.50
2019-05-28T15:16:37.649Z,18.30
2019-05-28T15:19:04.892Z,18.30
2019-05-28T15:21:32.473Z,18.40
2019-05-28T15:24:01.469Z,18.60
2019-05-28T15:26:28.720Z,18.90
2019-05-28T15:28:56.257Z,18.80
2019-05-28T15:31:26.075Z,19.00
2019-05-28T15:33:53.328Z,18.80
2019-05-28T15:36:20.985Z,18.60
2019-05-28T15:38:48.664Z,18.70
2019-05-28T15:41:15.829Z,18.70
2019-05-28T15:43:43.056Z,18.60
2019-05-28T15:46:13.349Z,18.70
2019-05-28T15:48:40.699Z,18.70
2019-05-28T15:51:08.285Z,18.60
2019-05-28T15:53:35.991Z,18.50
2019-05-28T15:56:03.811Z,18.30
2019-05-28T15:58:31.107Z,18.10
2019-05-28T16:00:58.464Z,17.90
2019-05-28T16:03:25.721Z,17.90
2019-05-28T16:05:53.320Z,17.80
2019-05-28T16:08:20.671Z,17.60
2019-05-28T16:10:47.913Z,17.50
2019-05-28T16:13:15.183Z,17.40
2019-05-28T16:15:42.467Z,17.30
2019-05-28T16:18:09.792Z,17.70
2019-05-28T16:20:37.893Z,17.60
2019-05-28T16:23:05.074Z,17.60
2019-05-28T16:25:32.348Z,17.10
2019-05-28T16:27:59.595Z,16.80
2019-05-28T16:30:26.941Z,16.60
2019-05-28T16:32:54.316Z,16.50
2019-05-28T16:35:21.538Z,16.50
2019-05-28T16:37:48.785Z,16.80
2019-05-28T16:40:16.738Z,16.80
2019-05-28T16:42:44.149Z,17.20
2019-05-28T16:45:12.884Z,17.00
2019-05-28T16:47:40.528Z,17.00
2019-05-28T16:50:13.359Z,16.80
2019-05-28T16:52:39.572Z,16.60
2019-05-28T16:55:08.709Z,17.00
2019-05-28T16:57:36.299Z,16.80
2019-05-28T17:00:04.700Z,16.30
2019-05-28T17:02:32.327Z,16.30
2019-05-28T17:04:59.869Z,16.00
2019-05-28T17:07:27.136Z,16.10
2019-05-28T17:09:54.775Z,16.10
2019-05-28T17:12:22.012Z,16.00
2019-05-28T17:14:49.601Z,15.80
2019-05-28T17:17:16.867Z,15.70
2019-05-28T17:19:44.917Z,15.50
2019-05-28T17:22:12.672Z,15.50
2019-05-28T17:24:39.951Z,15.70
2019-05-28T17:27:07.208Z,15.90
2019-05-28T17:29:34.484Z,16.00
2019-05-28T17:32:02.029Z,16.10
2019-05-28T17:34:29.653Z,16.00
2019-05-28T17:36:57.230Z,16.00
2019-05-28T17:39:24.687Z,15.80
2019-05-28T17:41:52.364Z,15.80
2019-05-28T17:44:19.636Z,15.40
2019-05-28T17:46:46.908Z,15.10
2019-05-28T17:49:14.288Z,14.70
2019-05-28T17:51:41.561Z,14.40
2019-05-28T17:54:08.903Z,14.30
2019-05-28T17:56:36.205Z,14.10
2019-05-28T17:59:03.520Z,14.00
2019-05-28T18:01:30.779Z,13.90
2019-05-28T18:03:58.318Z,13.90
2019-05-28T18:06:26.024Z,13.90
2019-05-28T18:08:53.249Z,13.80
2019-05-28T18:11:20.814Z,13.80
2019-05-28T18:13:48.085Z,13.70
2019-05-28T18:16:15.433Z,13.60
2019-05-28T18:18:42.790Z,13.50
2019-05-28T18:21:10.332Z,13.30
2019-05-28T18:23:37.584Z,14.10
2019-05-28T18:26:04.934Z,15.20
2019-05-28T18:28:32.591Z,15.30
2019-05-28T18:30:59.820Z,14.90
2019-05-28T18:33:27.409Z,15.50
2019-05-28T18:35:55.348Z,14.90
2019-05-28T18:38:23.319Z,15.00
2019-05-28T18:40:50.926Z,14.70
2019-05-28T18:43:18.175Z,14.20
2019-05-28T18:45:45.614Z,13.80
2019-05-28T18:48:12.860Z,13.50
2019-05-28T18:50:40.204Z,13.50
2019-05-28T18:53:07.769Z,13.50
2019-05-28T18:55:35.046Z,13.50
2019-05-28T18:58:02.359Z,13.40
2019-05-28T19:00:29.764Z,13.40
2019-05-28T19:02:56.992Z,13.50
2019-05-28T19:05:24.533Z,13.50
2019-05-28T19:07:51.803Z,13.50
2019-05-28T19:10:19.352Z,13.40
2019-05-28T19:12:46.601Z,13.20
2019-05-28T19:15:14.410Z,13.30
2019-05-28T19:17:42.016Z,13.20
2019-05-28T19:20:09.792Z,13.20
2019-05-28T19:22:37.130Z,13.20
2019-05-28T19:25:05.967Z,13.20
2019-05-28T19:27:35.602Z,13.20
2019-05-28T19:30:02.282Z,13.20
2019-05-28T19:32:29.600Z,13.30
2019-05-28T19:34:57.215Z,13.30
2019-05-28T19:37:27.266Z,13.30
2019-05-28T19:39:55.267Z,13.10
2019-05-28T19:42:22.866Z,13.00
2019-05-28T19:44:50.132Z,12.90
2019-05-28T19:47:18.073Z,12.80
2019-05-28T19:49:46.371Z,12.70
2019-05-28T19:52:15.962Z,12.60
2019-05-28T19:54:43.210Z,12.40
2019-05-28T19:57:10.528Z,12.30
2019-05-28T19:59:40.618Z,12.20
2019-05-28T20:02:07.937Z,12.20
2019-05-28T20:04:35.792Z,12.30
2019-05-28T20:07:03.105Z,12.30
2019-05-28T20:09:32.122Z,12.20
2019-05-28T20:12:11.565Z,12.00
2019-05-28T20:14:29.157Z,11.90
2019-05-28T20:16:57.427Z,11.80
2019-05-28T20:19:24.920Z,11.80
2019-05-28T20:21:55.058Z,11.70
2019-05-28T20:24:21.446Z,11.60
2019-05-28T20:26:49.870Z,11.60
2019-05-28T20:29:17.415Z,11.60
2019-05-28T20:31:45.168Z,11.70
2019-05-28T20:34:12.728Z,11.60
2019-05-28T20:36:40.146Z,11.70
2019-05-28T20:39:07.828Z,11.60
2019-05-28T20:41:35.837Z,11.60
2019-05-28T20:44:04.240Z,11.70
2019-05-28T20:46:32.502Z,11.80
2019-05-28T20:49:00.676Z,11.70
2019-05-28T20:51:28.032Z,11.60
2019-05-28T20:53:55.290Z,11.30
2019-05-28T20:56:22.582Z,11.20
2019-05-28T20:58:50.056Z,11.20
2019-05-28T21:01:21.040Z,11.20
2019-05-28T21:03:49.660Z,11.20
2019-05-28T21:06:17.099Z,11.30
2019-05-28T21:08:44.740Z,11.30
2019-05-28T21:11:12.005Z,11.30
2019-05-28T21:13:39.308Z,11.10
2019-05-28T21:16:06.580Z,10.90
2019-05-28T21:18:34.112Z,10.80
2019-05-28T21:21:01.865Z,10.70
2019-05-28T21:23:29.488Z,10.50
2019-05-28T21:25:56.724Z,10.40
2019-05-28T21:28:25.868Z,10.20
2019-05-28T21:30:53.161Z,10.20
2019-05-28T21:33:20.704Z,10.10
2019-05-28T21:35:47.956Z,10.10
2019-05-28T21:38:15.233Z,10.10
2019-05-28T21:40:42.762Z,10.10
2019-05-28T21:43:11.436Z,10.20
2019-05-28T21:45:38.733Z,10.10
2019-05-28T21:48:06.241Z,10.20
2019-05-28T21:50:33.945Z,10.30
2019-05-28T21:53:01.306Z,10.50
2019-05-28T21:55:28.716Z,10.40
2019-05-28T21:57:57.681Z,10.40
2019-05-28T22:00:43.673Z,10.30
2019-05-28T22:03:10.920Z,10.50
2019-05-28T22:05:38.083Z,10.60
2019-05-28T22:08:05.484Z,10.50
2019-05-28T22:10:32.868Z,10.40
2019-05-28T22:13:16.661Z,10.40
2019-05-28T22:15:29.624Z,10.50
2019-05-28T22:17:57.942Z,10.60
2019-05-28T22:20:25.368Z,10.70
2019-05-28T22:22:52.632Z,10.70
2019-05-28T22:25:19.888Z,10.60
2019-05-28T22:27:47.230Z,10.50
2019-05-28T22:30:15.090Z,10.50
2019-05-28T22:32:42.345Z,10.50
2019-05-28T22:35:10.254Z,10.50
2019-05-28T22:37:37.503Z,10.40
2019-05-28T22:40:06.019Z,10.60
2019-05-28T22:42:33.867Z,10.80
2019-05-28T22:45:01.188Z,11.00
2019-05-28T22:47:28.334Z,11.00
2019-05-28T22:50:13.659Z,11.10
2019-05-28T22:52:26.121Z,11.10
2019-05-28T22:54:54.195Z,11.10
2019-05-28T22:57:22.599Z,11.10
2019-05-28T22:59:50.249Z,11.00
2019-05-28T23:02:17.805Z,11.00
2019-05-28T23:04:45.453Z,10.80
2019-05-28T23:07:12.732Z,10.50
2019-05-28T23:09:39.976Z,10.50
2019-05-28T23:12:08.173Z,10.60
2019-05-28T23:14:35.512Z,10.50
2019-05-28T23:17:04.182Z,10.50
2019-05-28T23:19:31.532Z,10.60
2019-05-28T23:21:58.879Z,10.50
2019-05-28T23:24:26.111Z,10.30
2019-05-28T23:26:53.381Z,10.10
2019-05-28T23:29:21.498Z,10.10
2019-05-28T23:31:48.764Z,10.30
2019-05-28T23:34:16.030Z,10.30
2019-05-28T23:36:43.379Z,10.30
2019-05-28T23:39:11.119Z,10.20
2019-05-28T23:41:38.552Z,10.00
2019-05-28T23:44:07.476Z,9.90
2019-05-28T23:46:34.976Z,9.90
2019-05-28T23:49:04.005Z,9.80
2019-05-28T23:51:31.424Z,9.90
2019-05-28T23:53:58.564Z,9.90
2019-05-28T23:56:25.788Z,9.90
2019-05-28T23:58:53.049Z,10.00
